Lower Yukon Fax Sheet

SIGMETs

Area Forecast for Lower Yukon
LWR YKN VLY FF...VALID UNTIL 290800
...CLOUDS/WX...
SCT060 TOPS 110. WDLY SCT BKN060  TOPS 110.
PAKV-PAMC LN NE ISOL BKN045TCU TOP FL180 -SHRA.
OTLK VALID 290800-291400...PAKV-PATA LN N MVFR CIG SHRA. ELSW VFR.
...TURB...
NIL SIG. EXC VCY TCU.
...ICE AND FZLVL...
NE PAUN-PAMC LN ISOL MOD ICEIC 050-100. FZLVL 030.

TAFs
PAMC 282346Z 2900/2924  VRB05KT P6SM -SHRA BKN035 OVC080
     FM290600 VRB04KT P6SM VCSH BKN040 BKN090
     FM291000 VRB04KT P6SM BKN050 BKN100=


PAGA 282342Z 2900/2924 05004KT P6SM -SHRA BKN035 BKN080
     FM290600 09005KT P6SM VCSH BKN050 BKN100=
PAUN 282342Z 2900/2924 31008KT P6SM VCSH SCT010 BKN080
     FM290400 05006KT P6SM SCT015 BKN080
     FM291200 09007KT P6SM SCT050 BKN100=

Observations
PATA  AA 28 2252Z FEW080 SCT180             10          47  22 00000     000  37%  47    
PAMC  AA 28 2253Z BKN033 BKN065 OVC080       9 R-       45  39 05004     997  79%  43    
PAKV  AA 28 2253Z OVC028                    10          43  36 24004     999  76%  40    
PARS  AA 28 2256Z FEW047 BKN070             10          48  32 14004     993  54%  46    
PASL  AA 28 2256Z SCT044 BKN050 OVC075      10          48  32 14008     999  54%  44    
PAUN  AA 28 2256Z CLR                       10          40  35 31008     998  82%  34    
PAHC  AA 28 2256Z OVC070                    10          50  32 00003     993  50%  50    
PAKK  AA 28 2256Z OVC031                    10          36  19 18005     997  50%  31    
PALG  AA 28 2256Z FEW100                    10          49  31 12004     993  50%  47    
PANV  AA 28 2256Z BKN075                    10          46  32 03005     993  58%  43    
PAGA  AA 28 2257Z CLR                       10          52  25 11009     995  35%  48    
PAFS  AA 28 2301Z SCT032 OVC044             10          44  40 00000     998  86%  44    
PATL  AA 28 2255Z BKN009 BKN035             10          43  39 00006     997  86%  39    

Pilot Reports